Terminal Aerodrome Forecast
Issued by NWS Wilmington, OH

Current Version | Previous Version | Graphics & Text | Print | Product List | Glossary On
Versions: 1 2 3 4 5 6 7 8 9 10 11 12 13 14 15 16 17 18 19 20 21 22 23 24 25 26
000
FTUS41 KILN 271100
TAFCMH
TAF
KCMH 271135Z 2712/2812 36005KT P6SM SCT020
      TEMPO 2713/2715 BKN020
     FM271700 33008KT P6SM OVC022
     FM280100 33004KT P6SM SCT018=

USA.gov is the U.S. government's official web portal to all federal, state and local government web resources and services.